Time;durP1;ratioP1;P1;durP2;ratioP2;P2;SDS_P1;SDS_P2;PMS_P1;PMS_P2;Temp;Humidity;BMP_temperature;BMP_pressure;BME280_temperature;BME280_humidity;BME280_pressure;Samples;Min_cycle;Max_cycle;Signal;HPM_P1;HPM_P2
2021/01/26 00:01:47;;;;;;;17.50;12.00;;;;;;;;;;5031859;28;20420;-71
2021/01/26 00:04:13;;;;;;;16.63;11.80;;;;;;;;;;5032121;28;20445;-71
2021/01/26 00:06:38;;;;;;;18.03;11.57;;;;;;;;;;5031660;28;20431;-71
2021/01/26 00:09:04;;;;;;;15.50;11.83;;;;;;;;;;5032176;28;20423;-71
2021/01/26 00:11:30;;;;;;;14.90;11.55;;;;;;;;;;5031024;28;20429;-72
2021/01/26 00:13:56;;;;;;;19.17;12.80;;;;;;;;;;5033079;28;20267;-72
2021/01/26 00:16:22;;;;;;;14.63;10.33;;;;;;;;;;5027240;28;20806;-71
2021/01/26 00:18:48;;;;;;;17.02;11.55;;;;;;;;;;5023158;28;20455;-72
2021/01/26 00:21:14;;;;;;;16.67;10.73;;;;;;;;;;5013869;28;20497;-72
2021/01/26 00:23:40;;;;;;;14.75;12.02;;;;;;;;;;5031993;28;21013;-71
2021/01/26 00:26:06;;;;;;;16.35;10.68;;;;;;;;;;5033320;28;20760;-72
2021/01/26 00:28:32;;;;;;;14.80;9.67;;;;;;;;;;5031037;28;20273;-72
2021/01/26 00:30:58;;;;;;;21.43;11.77;;;;;;;;;;5022062;28;20432;-72
2021/01/26 00:33:24;;;;;;;21.93;11.27;;;;;;;;;;5029680;28;20457;-72
2021/01/26 00:35:51;;;;;;;15.65;10.77;;;;;;;;;;5030702;28;20475;-72
2021/01/26 00:38:18;;;;;;;29.63;11.15;;;;;;;;;;5030512;28;20646;-72
2021/01/26 00:40:44;;;;;;;14.82;10.05;;;;;;;;;;5031414;28;20549;-72
2021/01/26 00:43:10;;;;;;;13.97;10.53;;;;;;;;;;5032715;28;20198;-72
2021/01/26 00:45:36;;;;;;;11.80;9.88;;;;;;;;;;5013641;28;20516;-72
2021/01/26 00:48:03;;;;;;;16.25;9.38;;;;;;;;;;5032435;28;20185;-71
2021/01/26 00:50:29;;;;;;;18.08;10.35;;;;;;;;;;5015878;28;20190;-71
2021/01/26 00:52:55;;;;;;;14.60;11.68;;;;;;;;;;5028960;28;20190;-71
2021/01/26 00:55:23;;;;;;;13.10;11.25;;;;;;;;;;5020150;28;20202;-72
2021/01/26 00:57:49;;;;;;;17.10;11.52;;;;;;;;;;5012782;28;20546;-71
2021/01/26 01:00:21;;;;;;;15.05;10.68;;;;;;;;;;5028914;28;20182;-71
2021/01/26 01:02:47;;;;;;;13.70;11.35;;;;;;;;;;5024479;28;20199;-71
2021/01/26 01:05:13;;;;;;;12.88;10.35;;;;;;;;;;5031653;28;20193;-71
2021/01/26 01:07:39;;;;;;;19.92;12.10;;;;;;;;;;5023053;28;20530;-72
2021/01/26 01:10:06;;;;;;;18.50;11.43;;;;;;;;;;5012179;28;20194;-71
2021/01/26 01:12:32;;;;;;;13.77;10.70;;;;;;;;;;5012822;28;20446;-72
2021/01/26 01:14:58;;;;;;;13.40;10.90;;;;;;;;;;5016770;28;20245;-72
2021/01/26 01:17:24;;;;;;;18.83;11.97;;;;;;;;;;5015141;28;20453;-72
2021/01/26 01:19:50;;;;;;;18.10;12.00;;;;;;;;;;5032201;28;20779;-72
2021/01/26 01:22:16;;;;;;;15.15;11.45;;;;;;;;;;5024385;28;20496;-72
2021/01/26 01:24:42;;;;;;;13.60;10.47;;;;;;;;;;5027179;28;20269;-71
2021/01/26 01:27:08;;;;;;;19.27;9.93;;;;;;;;;;5025905;28;20422;-71
2021/01/26 01:29:34;;;;;;;16.05;11.02;;;;;;;;;;5012445;28;20402;-71
2021/01/26 01:32:00;;;;;;;13.10;9.60;;;;;;;;;;5019929;28;20197;-71
2021/01/26 01:34:26;;;;;;;15.13;9.90;;;;;;;;;;5031536;28;20469;-72
2021/01/26 01:36:52;;;;;;;14.52;9.07;;;;;;;;;;5031620;28;20428;-71
2021/01/26 01:39:18;;;;;;;18.70;10.05;;;;;;;;;;5019597;28;20171;-71
2021/01/26 01:41:44;;;;;;;13.65;10.48;;;;;;;;;;5048505;28;20264;-71
2021/01/26 01:44:10;;;;;;;12.90;11.20;;;;;;;;;;5029345;28;20692;-71
2021/01/26 01:46:44;;;;;;;15.40;9.77;;;;;;;;;;5026824;28;20432;-72
2021/01/26 01:49:12;;;;;;;14.75;8.75;;;;;;;;;;5020730;28;20414;-72
2021/01/26 01:51:40;;;;;;;25.13;9.75;;;;;;;;;;5026567;28;20248;-71
2021/01/26 01:54:09;;;;;;;17.80;8.40;;;;;;;;;;5024177;28;20843;-71
2021/01/26 01:56:42;;;;;;;11.45;9.25;;;;;;;;;;5031289;28;20642;-71
2021/01/26 01:59:12;;;;;;;10.73;9.63;;;;;;;;;;5026648;28;20178;-71
2021/01/26 02:01:38;;;;;;;14.32;8.48;;;;;;;;;;5029848;28;20185;-71
2021/01/26 02:04:09;;;;;;;12.30;8.50;;;;;;;;;;5031108;28;20202;-71
2021/01/26 02:06:36;;;;;;;12.85;9.63;;;;;;;;;;5030298;28;20193;-72
2021/01/26 02:09:05;;;;;;;11.77;9.40;;;;;;;;;;5021237;28;20662;-71
2021/01/26 02:11:31;;;;;;;16.17;9.60;;;;;;;;;;5044248;28;20863;-71
2021/01/26 02:13:57;;;;;;;12.18;8.02;;;;;;;;;;5021867;28;20242;-71
2021/01/26 02:16:32;;;;;;;11.33;9.27;;;;;;;;;;5024771;28;20216;-71
2021/01/26 02:18:58;;;;;;;11.38;9.05;;;;;;;;;;5029958;28;20427;-71
2021/01/26 02:21:56;;;;;;;14.23;9.40;;;;;;;;;;5034441;28;20174;-71
2021/01/26 02:24:45;;;;;;;15.45;9.85;;;;;;;;;;4987405;28;20867;-71
2021/01/26 02:27:26;;;;;;;10.20;8.50;;;;;;;;;;5019897;28;20241;-71
2021/01/26 02:29:52;;;;;;;18.40;10.80;;;;;;;;;;5027823;28;20178;-71
2021/01/26 02:32:26;;;;;;;13.97;7.83;;;;;;;;;;5030139;28;20189;-71
2021/01/26 02:35:18;;;;;;;10.82;8.20;;;;;;;;;;5029205;28;20457;-71
2021/01/26 02:37:59;;;;;;;14.93;8.93;;;;;;;;;;5014666;28;20191;-71
2021/01/26 02:40:36;;;;;;;18.50;10.32;;;;;;;;;;5029915;28;20181;-71
2021/01/26 02:43:14;;;;;;;13.32;9.40;;;;;;;;;;5028980;28;20260;-71
2021/01/26 02:45:44;;;;;;;18.73;9.48;;;;;;;;;;5030353;28;20220;-71
2021/01/26 02:48:19;;;;;;;16.88;10.07;;;;;;;;;;5030585;28;20648;-71
2021/01/26 02:50:57;;;;;;;14.77;8.27;;;;;;;;;;5029185;28;20248;-71
2021/01/26 02:53:32;;;;;;;18.05;8.95;;;;;;;;;;5023645;28;20679;-71
2021/01/26 02:56:17;;;;;;;9.77;7.75;;;;;;;;;;5011654;28;20293;-71
2021/01/26 02:58:57;;;;;;;12.95;8.20;;;;;;;;;;5010827;28;20712;-71
2021/01/26 03:01:23;;;;;;;6.78;5.25;;;;;;;;;;5019299;28;20186;-71
2021/01/26 03:03:53;;;;;;;19.05;9.10;;;;;;;;;;5020893;28;20416;-71
2021/01/26 03:06:23;;;;;;;7.78;6.43;;;;;;;;;;5017460;28;20543;-71
2021/01/26 03:08:52;;;;;;;9.00;7.10;;;;;;;;;;5034744;28;20537;-71
2021/01/26 03:11:27;;;;;;;20.23;8.68;;;;;;;;;;5021221;28;20189;-71
2021/01/26 03:14:03;;;;;;;16.33;8.85;;;;;;;;;;5018828;28;20747;-71
2021/01/26 03:16:31;;;;;;;10.45;8.82;;;;;;;;;;5034556;28;20546;-71
2021/01/26 03:19:02;;;;;;;10.63;8.10;;;;;;;;;;5034209;28;20544;-71
2021/01/26 03:21:29;;;;;;;13.73;7.60;;;;;;;;;;5033823;28;20183;-71
2021/01/26 03:24:03;;;;;;;10.98;7.43;;;;;;;;;;5030048;28;20569;-71
2021/01/26 03:26:29;;;;;;;12.35;8.50;;;;;;;;;;5014440;28;20554;-71
2021/01/26 03:28:57;;;;;;;9.70;7.32;;;;;;;;;;5014822;28;20178;-71
2021/01/26 03:31:31;;;;;;;12.82;7.80;;;;;;;;;;5018807;28;20271;-71
2021/01/26 03:33:57;;;;;;;14.50;8.15;;;;;;;;;;5033215;28;20243;-70
2021/01/26 03:36:23;;;;;;;11.77;8.05;;;;;;;;;;5045674;28;20767;-71
2021/01/26 03:38:50;;;;;;;13.07;7.70;;;;;;;;;;5032398;28;20328;-71
2021/01/26 03:41:17;;;;;;;12.00;8.73;;;;;;;;;;5033609;28;20189;-71
2021/01/26 03:43:45;;;;;;;14.38;8.85;;;;;;;;;;5033232;28;20214;-71
2021/01/26 03:46:17;;;;;;;13.40;7.88;;;;;;;;;;5033418;28;20170;-71
2021/01/26 03:48:43;;;;;;;16.50;8.73;;;;;;;;;;5026985;28;20197;-71
2021/01/26 03:51:11;;;;;;;14.73;8.03;;;;;;;;;;5014330;28;20187;-71
2021/01/26 03:53:44;;;;;;;11.77;9.57;;;;;;;;;;5022389;28;20855;-71
2021/01/26 03:56:22;;;;;;;16.67;8.60;;;;;;;;;;5033386;28;20755;-71
2021/01/26 03:59:11;;;;;;;10.02;7.55;;;;;;;;;;5032353;28;20202;-71
2021/01/26 04:01:46;;;;;;;17.40;7.20;;;;;;;;;;5020141;28;20237;-71
2021/01/26 04:04:15;;;;;;;7.47;6.13;;;;;;;;;;5022505;28;20545;-71
2021/01/26 04:06:51;;;;;;;14.32;7.53;;;;;;;;;;5018014;28;20262;-71
2021/01/26 04:09:19;;;;;;;11.85;8.13;;;;;;;;;;5033103;28;20174;-71
2021/01/26 04:12:09;;;;;;;13.77;7.80;;;;;;;;;;5033216;28;20753;-71
2021/01/26 04:14:41;;;;;;;12.52;8.07;;;;;;;;;;5018027;28;20287;-71
2021/01/26 04:17:10;;;;;;;12.27;7.60;;;;;;;;;;5020723;28;20186;-71
2021/01/26 04:19:39;;;;;;;13.15;7.65;;;;;;;;;;5020302;28;20217;-71
2021/01/26 04:22:07;;;;;;;13.73;7.35;;;;;;;;;;5013355;28;20217;-71
2021/01/26 04:24:34;;;;;;;10.82;7.30;;;;;;;;;;5026091;28;20209;-71
2021/01/26 04:27:03;;;;;;;10.13;7.68;;;;;;;;;;5016063;28;20688;-71
2021/01/26 04:29:29;;;;;;;11.45;8.23;;;;;;;;;;5012097;28;20194;-71
2021/01/26 04:31:55;;;;;;;8.23;6.50;;;;;;;;;;5025315;28;20178;-71
2021/01/26 04:34:22;;;;;;;9.65;6.85;;;;;;;;;;5035890;28;20214;-71
2021/01/26 04:36:48;;;;;;;11.20;7.90;;;;;;;;;;5013363;28;20269;-71
2021/01/26 04:39:14;;;;;;;17.63;10.40;;;;;;;;;;5023567;28;20190;-71
2021/01/26 04:41:41;;;;;;;7.57;6.77;;;;;;;;;;5029469;28;20422;-71
2021/01/26 04:44:13;;;;;;;13.90;7.03;;;;;;;;;;5018677;28;20441;-71
2021/01/26 04:46:49;;;;;;;8.45;7.18;;;;;;;;;;5032085;28;20535;-71
2021/01/26 04:49:15;;;;;;;13.93;6.68;;;;;;;;;;5032066;28;20201;-72
2021/01/26 04:52:05;;;;;;;12.07;6.83;;;;;;;;;;5030764;28;20262;-71
2021/01/26 04:54:37;;;;;;;11.50;7.68;;;;;;;;;;5012615;28;20527;-71
2021/01/26 04:57:03;;;;;;;18.55;6.90;;;;;;;;;;5031336;28;20178;-72
2021/01/26 04:59:35;;;;;;;8.80;6.80;;;;;;;;;;5019168;28;20194;-72
2021/01/26 05:02:04;;;;;;;12.10;7.45;;;;;;;;;;5026169;28;20482;-72
2021/01/26 05:04:31;;;;;;;13.15;7.75;;;;;;;;;;5038004;28;20716;-71
2021/01/26 05:07:02;;;;;;;18.85;6.22;;;;;;;;;;5035920;28;20190;-71
2021/01/26 05:09:30;;;;;;;13.15;8.15;;;;;;;;;;5031896;28;20555;-71
2021/01/26 05:11:57;;;;;;;9.98;7.05;;;;;;;;;;5032031;28;20186;-71
2021/01/26 05:14:26;;;;;;;10.63;7.25;;;;;;;;;;5017400;28;20414;-71
2021/01/26 05:16:52;;;;;;;13.05;9.05;;;;;;;;;;5015288;28;20262;-71
2021/01/26 05:19:18;;;;;;;11.93;9.20;;;;;;;;;;5027258;28;20344;-71
2021/01/26 05:21:47;;;;;;;8.70;7.20;;;;;;;;;;5051978;28;20487;-71
2021/01/26 05:24:18;;;;;;;7.40;5.15;;;;;;;;;;5025079;28;20438;-71
2021/01/26 05:26:44;;;;;;;2.60;2.17;;;;;;;;;;5012283;28;20183;-71
2021/01/26 05:29:13;;;;;;;9.63;6.50;;;;;;;;;;5014908;28;20190;-71
2021/01/26 05:31:39;;;;;;;4.30;3.90;;;;;;;;;;5012681;28;20475;-71
2021/01/26 05:34:08;;;;;;;5.03;4.53;;;;;;;;;;5030169;28;20247;-71
2021/01/26 05:36:34;;;;;;;6.30;4.10;;;;;;;;;;5032747;28;20190;-71
2021/01/26 05:39:00;;;;;;;9.55;6.75;;;;;;;;;;5043397;28;20592;-71
2021/01/26 05:41:26;;;;;;;11.15;5.82;;;;;;;;;;5049507;28;20260;-71
2021/01/26 05:43:54;;;;;;;10.23;6.78;;;;;;;;;;5030772;28;20206;-71
2021/01/26 05:46:47;;;;;;;7.80;6.13;;;;;;;;;;5031930;28;20264;-71
2021/01/26 05:49:14;;;;;;;14.38;6.55;;;;;;;;;;5023650;28;20206;-72
2021/01/26 05:51:41;;;;;;;9.82;6.38;;;;;;;;;;5029295;28;20182;-72
2021/01/26 05:54:21;;;;;;;8.30;5.63;;;;;;;;;;5030137;28;20201;-72
2021/01/26 05:56:51;;;;;;;6.28;5.15;;;;;;;;;;5030542;28;20182;-72
2021/01/26 05:59:36;;;;;;;7.40;5.93;;;;;;;;;;5017760;28;20663;-72
2021/01/26 06:02:13;;;;;;;8.70;5.93;;;;;;;;;;5024061;28;20548;-73
2021/01/26 06:04:39;;;;;;;13.63;7.65;;;;;;;;;;5030870;28;20189;-72
2021/01/26 06:07:15;;;;;;;13.45;7.78;;;;;;;;;;5030930;28;20189;-73
2021/01/26 06:09:42;;;;;;;9.02;7.03;;;;;;;;;;5031877;28;20266;-72
2021/01/26 06:12:11;;;;;;;10.43;7.20;;;;;;;;;;5023971;28;20182;-72
2021/01/26 06:14:37;;;;;;;13.13;7.07;;;;;;;;;;5023670;28;20202;-72
2021/01/26 06:17:07;;;;;;;9.80;7.22;;;;;;;;;;5030732;28;20227;-72
2021/01/26 06:19:33;;;;;;;12.57;7.47;;;;;;;;;;5016077;28;20183;-71
2021/01/26 06:21:59;;;;;;;19.42;8.00;;;;;;;;;;5012692;28;20182;-72
2021/01/26 06:24:26;;;;;;;10.38;8.00;;;;;;;;;;5029631;28;20225;-72
2021/01/26 06:27:10;;;;;;;11.52;7.35;;;;;;;;;;5031067;28;20166;-72
2021/01/26 06:29:55;;;;;;;11.75;7.03;;;;;;;;;;5029709;28;20223;-72
2021/01/26 06:32:26;;;;;;;10.18;7.10;;;;;;;;;;5023293;28;20178;-72
2021/01/26 06:35:11;;;;;;;14.82;8.95;;;;;;;;;;5029917;28;20438;-72
2021/01/26 06:37:40;;;;;;;14.80;8.65;;;;;;;;;;5030134;28;20229;-72
2021/01/26 06:40:19;;;;;;;10.75;7.25;;;;;;;;;;5034713;28;20184;-72
2021/01/26 06:42:48;;;;;;;12.43;6.20;;;;;;;;;;5034741;28;20202;-72
2021/01/26 06:45:26;;;;;;;12.82;8.70;;;;;;;;;;5030084;28;20189;-72
2021/01/26 06:48:04;;;;;;;13.25;7.43;;;;;;;;;;5029268;28;20229;-72
2021/01/26 06:50:33;;;;;;;14.85;8.25;;;;;;;;;;5030696;28;20324;-72
2021/01/26 06:53:24;;;;;;;12.50;7.88;;;;;;;;;;5030805;28;20186;-73
2021/01/26 06:56:09;;;;;;;15.32;8.85;;;;;;;;;;5030535;28;20205;-72
2021/01/26 06:58:35;;;;;;;12.65;8.73;;;;;;;;;;5030748;28;20586;-72
2021/01/26 07:01:16;;;;;;;14.20;9.17;;;;;;;;;;5028454;28;20182;-72
2021/01/26 07:03:48;;;;;;;12.25;9.95;;;;;;;;;;5030578;28;20455;-72
2021/01/26 07:06:33;;;;;;;15.75;9.45;;;;;;;;;;5029930;28;20197;-72
2021/01/26 07:09:05;;;;;;;9.02;6.40;;;;;;;;;;5030795;28;20610;-72
2021/01/26 07:11:49;;;;;;;10.65;9.55;;;;;;;;;;5045013;28;20184;-72
2021/01/26 07:14:15;;;;;;;19.98;9.27;;;;;;;;;;5050010;28;20201;-72
2021/01/26 07:16:54;;;;;;;13.73;8.43;;;;;;;;;;5050631;28;20256;-72
2021/01/26 07:19:33;;;;;;;9.50;7.15;;;;;;;;;;5035118;28;20416;-72
2021/01/26 07:22:07;;;;;;;9.85;7.22;;;;;;;;;;5030399;28;20593;-72
2021/01/26 07:24:39;;;;;;;23.88;9.93;;;;;;;;;;5030232;28;20274;-72
2021/01/26 07:27:24;;;;;;;15.10;7.38;;;;;;;;;;5030383;28;20202;-72
2021/01/26 07:30:02;;;;;;;18.70;9.50;;;;;;;;;;5029955;28;20189;-72
2021/01/26 07:32:34;;;;;;;11.75;9.70;;;;;;;;;;5029963;28;20680;-72
2021/01/26 07:35:12;;;;;;;12.13;10.38;;;;;;;;;;5030435;28;20210;-72
2021/01/26 07:37:38;;;;;;;12.65;8.00;;;;;;;;;;5028311;28;20260;-73
2021/01/26 07:40:09;;;;;;;10.53;7.87;;;;;;;;;;5030898;28;20258;-73
2021/01/26 07:42:37;;;;;;;16.58;8.95;;;;;;;;;;5050114;28;20424;-73
2021/01/26 07:45:19;;;;;;;12.23;8.73;;;;;;;;;;5033129;28;20542;-74
2021/01/26 07:48:02;;;;;;;15.98;8.68;;;;;;;;;;5030279;28;20752;-72
2021/01/26 07:50:40;;;;;;;11.30;7.50;;;;;;;;;;5031193;28;20190;-73
2021/01/26 07:53:13;;;;;;;10.32;7.72;;;;;;;;;;5033990;28;20232;-72
2021/01/26 07:55:52;;;;;;;10.02;7.63;;;;;;;;;;5033593;28;20244;-72
2021/01/26 07:58:18;;;;;;;15.05;8.68;;;;;;;;;;5033589;28;20235;-72
2021/01/26 08:00:50;;;;;;;16.00;8.15;;;;;;;;;;5033302;28;20304;-73
2021/01/26 08:03:21;;;;;;;15.98;9.05;;;;;;;;;;5033938;28;20601;-73
2021/01/26 08:05:49;;;;;;;15.23;10.02;;;;;;;;;;5033632;28;20178;-72
2021/01/26 08:08:17;;;;;;;12.82;9.32;;;;;;;;;;5033558;28;20174;-72
2021/01/26 08:10:44;;;;;;;12.15;8.35;;;;;;;;;;5033447;28;20320;-72
2021/01/26 08:13:10;;;;;;;11.73;8.20;;;;;;;;;;5033311;28;20255;-72
2021/01/26 08:15:41;;;;;;;18.08;9.07;;;;;;;;;;5032976;28;20749;-72
2021/01/26 08:18:21;;;;;;;13.93;8.63;;;;;;;;;;5032979;28;20201;-72
2021/01/26 08:20:47;;;;;;;15.27;8.90;;;;;;;;;;5033366;28;20590;-72
2021/01/26 08:23:20;;;;;;;13.85;7.85;;;;;;;;;;5033278;28;20677;-71
2021/01/26 08:25:50;;;;;;;15.70;8.48;;;;;;;;;;5033067;28;20179;-71
2021/01/26 08:28:54;;;;;;;12.95;9.20;;;;;;;;;;5033127;28;20178;-72
2021/01/26 08:31:24;;;;;;;12.05;6.82;;;;;;;;;;4971516;28;20184;-72
2021/01/26 08:33:52;;;;;;;13.52;8.30;;;;;;;;;;4971062;28;20766;-72
2021/01/26 08:36:25;;;;;;;7.43;5.90;;;;;;;;;;5002373;28;20245;-71
2021/01/26 08:38:53;;;;;;;13.02;9.10;;;;;;;;;;5035084;28;20538;-72
2021/01/26 08:41:36;;;;;;;15.80;10.68;;;;;;;;;;5033077;28;20681;-70
2021/01/26 08:44:03;;;;;;;11.43;9.02;;;;;;;;;;5032792;28;20201;-71
2021/01/26 08:46:31;;;;;;;11.82;8.73;;;;;;;;;;5032708;28;20193;-71
2021/01/26 08:48:58;;;;;;;24.38;9.00;;;;;;;;;;5032532;28;20198;-71
2021/01/26 08:51:26;;;;;;;12.80;10.00;;;;;;;;;;5031436;28;20263;-72
2021/01/26 08:53:52;;;;;;;17.33;9.85;;;;;;;;;;5032554;28;20696;-72
2021/01/26 08:56:21;;;;;;;23.13;9.80;;;;;;;;;;5032741;28;20748;-71
2021/01/26 08:58:50;;;;;;;11.70;10.48;;;;;;;;;;5032838;28;20216;-72
2021/01/26 09:01:25;;;;;;;14.68;9.45;;;;;;;;;;5032450;28;20364;-72
2021/01/26 09:03:55;;;;;;;20.30;10.50;;;;;;;;;;5030424;28;20212;-73
2021/01/26 09:06:27;;;;;;;10.98;8.02;;;;;;;;;;5032597;28;20182;-72
2021/01/26 09:08:58;;;;;;;19.25;9.85;;;;;;;;;;5032250;28;20206;-72
2021/01/26 09:11:26;;;;;;;18.27;9.73;;;;;;;;;;5032302;28;20205;-72
2021/01/26 09:13:53;;;;;;;13.23;9.20;;;;;;;;;;5032214;28;20289;-72
2021/01/26 09:16:25;;;;;;;21.27;11.27;;;;;;;;;;5031869;28;20198;-72
2021/01/26 09:18:56;;;;;;;16.77;10.00;;;;;;;;;;5032147;28;20182;-72
2021/01/26 09:21:23;;;;;;;10.30;8.48;;;;;;;;;;5032451;28;20245;-71
2021/01/26 09:23:52;;;;;;;19.90;10.95;;;;;;;;;;5032262;28;20616;-71
2021/01/26 09:26:18;;;;;;;11.80;9.80;;;;;;;;;;5032523;28;20178;-72
2021/01/26 09:28:46;;;;;;;16.25;10.73;;;;;;;;;;5032392;28;20170;-72
2021/01/26 09:31:13;;;;;;;11.60;9.63;;;;;;;;;;5031839;28;20617;-72
2021/01/26 09:33:39;;;;;;;12.60;9.75;;;;;;;;;;5031811;28;20214;-71
2021/01/26 09:36:09;;;;;;;14.30;7.53;;;;;;;;;;5031439;28;20194;-73
2021/01/26 09:38:36;;;;;;;9.52;8.52;;;;;;;;;;5031737;28;20182;-72
2021/01/26 09:41:21;;;;;;;12.73;7.78;;;;;;;;;;5030687;28;20179;-71
2021/01/26 09:43:48;;;;;;;17.80;10.05;;;;;;;;;;5031825;28;20367;-72
2021/01/26 09:46:23;;;;;;;9.45;8.07;;;;;;;;;;5031345;28;20189;-72
2021/01/26 09:48:50;;;;;;;14.07;9.68;;;;;;;;;;5031678;28;20220;-72
2021/01/26 09:51:16;;;;;;;13.45;9.95;;;;;;;;;;5031898;28;20302;-71
2021/01/26 09:53:44;;;;;;;15.60;10.60;;;;;;;;;;5031648;28;20660;-72
2021/01/26 09:56:11;;;;;;;13.90;11.70;;;;;;;;;;5047297;28;20459;-72
2021/01/26 09:58:37;;;;;;;16.55;11.60;;;;;;;;;;5043966;28;20536;-71
2021/01/26 10:01:04;;;;;;;21.35;9.57;;;;;;;;;;5031167;28;20189;-72
2021/01/26 10:03:30;;;;;;;12.75;10.18;;;;;;;;;;5031368;28;20198;-72
2021/01/26 10:05:56;;;;;;;13.88;10.18;;;;;;;;;;5031392;28;20181;-72
2021/01/26 10:08:30;;;;;;;14.70;9.90;;;;;;;;;;5030063;28;20182;-72
2021/01/26 10:10:56;;;;;;;10.23;9.32;;;;;;;;;;5031401;28;20177;-72
2021/01/26 10:13:26;;;;;;;14.95;10.52;;;;;;;;;;5031180;28;20213;-72
2021/01/26 10:15:52;;;;;;;11.35;8.18;;;;;;;;;;5031036;28;20189;-72
2021/01/26 10:18:19;;;;;;;13.03;8.90;;;;;;;;;;5031446;28;20743;-72
2021/01/26 10:20:45;;;;;;;11.88;8.82;;;;;;;;;;5031215;28;20512;-73
2021/01/26 10:23:14;;;;;;;8.93;7.53;;;;;;;;;;5030994;28;20269;-73
2021/01/26 10:25:41;;;;;;;6.25;4.80;;;;;;;;;;5031007;28;20409;-71
2021/01/26 10:28:07;;;;;;;15.90;8.10;;;;;;;;;;5030910;28;20190;-72
2021/01/26 10:30:39;;;;;;;16.10;9.77;;;;;;;;;;5030774;28;20186;-73
2021/01/26 10:33:05;;;;;;;7.90;6.03;;;;;;;;;;5046467;28;20464;-73
2021/01/26 10:35:32;;;;;;;13.30;9.00;;;;;;;;;;5030832;28;20673;-73
2021/01/26 10:37:58;;;;;;;15.48;7.75;;;;;;;;;;5031126;28;20424;-73
2021/01/26 10:40:27;;;;;;;6.15;5.05;;;;;;;;;;5030853;28;20216;-71
2021/01/26 10:42:56;;;;;;;10.27;8.15;;;;;;;;;;5030877;28;20575;-73
2021/01/26 10:45:40;;;;;;;9.68;8.05;;;;;;;;;;5029745;28;20685;-72
2021/01/26 10:48:24;;;;;;;17.88;8.10;;;;;;;;;;5030392;28;20213;-73
2021/01/26 10:50:51;;;;;;;11.63;7.00;;;;;;;;;;5020047;28;20537;-72
2021/01/26 10:53:33;;;;;;;6.90;4.82;;;;;;;;;;5028973;28;20202;-74
2021/01/26 10:56:00;;;;;;;8.43;7.63;;;;;;;;;;5030474;28;20547;-73
2021/01/26 10:58:26;;;;;;;11.00;7.15;;;;;;;;;;5030597;28;20178;-73
2021/01/26 11:00:52;;;;;;;12.47;8.27;;;;;;;;;;5030535;28;20625;-73
2021/01/26 11:03:18;;;;;;;9.40;7.20;;;;;;;;;;5030591;28;20519;-73
2021/01/26 11:05:44;;;;;;;7.10;6.37;;;;;;;;;;5045735;28;20218;-72
2021/01/26 11:08:10;;;;;;;12.00;6.90;;;;;;;;;;5032272;28;20427;-72
2021/01/26 11:10:36;;;;;;;13.93;8.45;;;;;;;;;;5030436;28;20427;-73
2021/01/26 11:13:03;;;;;;;9.55;7.70;;;;;;;;;;5030314;28;20217;-73
2021/01/26 11:15:29;;;;;;;14.70;7.57;;;;;;;;;;5029780;28;20202;-72
2021/01/26 11:17:55;;;;;;;11.57;7.23;;;;;;;;;;5030602;28;20208;-73
2021/01/26 11:20:21;;;;;;;12.00;7.90;;;;;;;;;;5030513;28;21094;-72
2021/01/26 11:22:47;;;;;;;10.60;6.80;;;;;;;;;;5030505;28;20194;-73
2021/01/26 11:25:13;;;;;;;12.43;7.55;;;;;;;;;;5030786;28;20492;-73
2021/01/26 11:27:39;;;;;;;11.57;5.45;;;;;;;;;;5034381;28;20224;-73
2021/01/26 11:30:06;;;;;;;7.80;4.25;;;;;;;;;;5034214;28;20521;-73
2021/01/26 11:32:32;;;;;;;12.18;8.20;;;;;;;;;;5034249;28;20182;-71
2021/01/26 11:34:58;;;;;;;7.50;5.80;;;;;;;;;;5039237;28;20212;-72
2021/01/26 11:37:24;;;;;;;10.53;6.87;;;;;;;;;;5053940;28;20412;-71
2021/01/26 11:39:50;;;;;;;12.43;7.18;;;;;;;;;;5039967;28;20425;-71
2021/01/26 11:42:15;;;;;;;8.13;6.53;;;;;;;;;;5033942;28;20660;-72
2021/01/26 11:44:42;;;;;;;9.33;6.43;;;;;;;;;;5034128;28;20178;-71
2021/01/26 11:47:08;;;;;;;6.97;6.18;;;;;;;;;;5034013;28;20416;-72
2021/01/26 11:49:34;;;;;;;13.27;6.13;;;;;;;;;;5033795;28;20186;-73
2021/01/26 11:52:01;;;;;;;14.13;7.47;;;;;;;;;;5034421;28;20519;-72
2021/01/26 11:54:27;;;;;;;8.30;5.85;;;;;;;;;;5033562;28;20956;-72
2021/01/26 11:56:53;;;;;;;6.88;5.72;;;;;;;;;;5033380;28;20327;-72
2021/01/26 11:59:19;;;;;;;7.30;6.30;;;;;;;;;;5033728;28;20301;-72
2021/01/26 12:01:45;;;;;;;11.23;6.53;;;;;;;;;;5033592;28;20432;-73
2021/01/26 12:04:11;;;;;;;21.80;6.63;;;;;;;;;;5020161;28;20464;-72
2021/01/26 12:06:37;;;;;;;9.97;5.57;;;;;;;;;;5021757;28;20190;-72
2021/01/26 12:09:04;;;;;;;8.85;4.80;;;;;;;;;;5013879;28;20756;-73
2021/01/26 12:11:30;;;;;;;7.63;5.63;;;;;;;;;;5032297;28;20191;-72
2021/01/26 12:13:57;;;;;;;8.73;5.70;;;;;;;;;;5032945;28;20248;-72
2021/01/26 12:16:22;;;;;;;8.43;6.00;;;;;;;;;;5033135;28;20297;-72
2021/01/26 12:18:48;;;;;;;10.00;7.10;;;;;;;;;;5032835;28;20265;-72
2021/01/26 12:21:15;;;;;;;7.97;7.17;;;;;;;;;;5033329;28;20439;-72
2021/01/26 12:23:43;;;;;;;8.15;6.50;;;;;;;;;;5032963;28;20444;-73
2021/01/26 12:26:09;;;;;;;9.68;6.22;;;;;;;;;;5033201;28;20198;-73
2021/01/26 12:28:35;;;;;;;6.05;5.45;;;;;;;;;;5032046;28;20650;-73
2021/01/26 12:31:01;;;;;;;8.25;5.95;;;;;;;;;;5033187;28;20185;-73
2021/01/26 12:33:26;;;;;;;9.10;6.30;;;;;;;;;;5041165;28;20247;-72
2021/01/26 12:35:52;;;;;;;10.75;5.75;;;;;;;;;;5032036;28;20555;-72
2021/01/26 12:38:18;;;;;;;6.83;6.20;;;;;;;;;;5031103;28;20170;-72
2021/01/26 12:40:44;;;;;;;11.73;6.80;;;;;;;;;;5032061;28;20455;-73
2021/01/26 12:43:11;;;;;;;6.93;5.97;;;;;;;;;;5031365;28;20285;-72
2021/01/26 12:45:37;;;;;;;8.38;7.40;;;;;;;;;;5030860;28;20413;-72
2021/01/26 12:48:04;;;;;;;6.63;5.82;;;;;;;;;;5031913;28;20186;-72
2021/01/26 12:50:31;;;;;;;9.38;4.28;;;;;;;;;;5033628;28;20668;-72
2021/01/26 12:52:57;;;;;;;6.47;5.80;;;;;;;;;;5032729;28;20194;-72
2021/01/26 12:55:23;;;;;;;10.35;6.38;;;;;;;;;;5032653;28;20645;-72
2021/01/26 12:57:50;;;;;;;6.97;6.25;;;;;;;;;;5032827;28;20174;-72
2021/01/26 13:00:17;;;;;;;16.55;6.38;;;;;;;;;;5032595;28;20248;-73
2021/01/26 13:02:43;;;;;;;10.40;5.32;;;;;;;;;;5041218;28;20237;-72
2021/01/26 13:05:11;;;;;;;7.00;5.72;;;;;;;;;;5032285;28;20556;-72
2021/01/26 13:07:37;;;;;;;8.57;6.40;;;;;;;;;;5032465;28;20213;-72
2021/01/26 13:10:04;;;;;;;7.00;4.60;;;;;;;;;;5031240;28;20185;-72
2021/01/26 13:12:30;;;;;;;12.48;6.00;;;;;;;;;;5031985;28;20444;-73
2021/01/26 13:14:55;;;;;;;7.95;5.82;;;;;;;;;;5031644;28;20702;-73
2021/01/26 13:17:21;;;;;;;11.63;5.80;;;;;;;;;;5031758;28;20175;-72
2021/01/26 13:19:47;;;;;;;5.05;4.57;;;;;;;;;;5029771;28;20446;-73
2021/01/26 13:22:13;;;;;;;11.00;4.90;;;;;;;;;;5020433;28;20682;-72
2021/01/26 13:24:39;;;;;;;8.38;5.03;;;;;;;;;;5029447;28;20898;-72
2021/01/26 13:27:06;;;;;;;5.70;4.63;;;;;;;;;;5029013;28;20269;-71
2021/01/26 13:29:32;;;;;;;8.25;4.35;;;;;;;;;;5029140;28;20424;-72
2021/01/26 13:31:58;;;;;;;7.25;4.40;;;;;;;;;;5027760;28;20566;-72
2021/01/26 13:34:24;;;;;;;6.53;4.20;;;;;;;;;;5027320;28;20249;-71
2021/01/26 13:36:50;;;;;;;8.20;4.40;;;;;;;;;;5030999;28;20436;-72
2021/01/26 13:39:16;;;;;;;8.87;4.47;;;;;;;;;;5033044;28;20193;-72
2021/01/26 13:41:45;;;;;;;5.57;4.90;;;;;;;;;;5031225;28;20460;-73
2021/01/26 13:44:12;;;;;;;8.02;4.88;;;;;;;;;;5031094;28;20359;-71
2021/01/26 13:46:38;;;;;;;5.03;4.53;;;;;;;;;;5031279;28;20565;-72
2021/01/26 13:49:04;;;;;;;5.03;4.53;;;;;;;;;;5029378;28;20186;-72
2021/01/26 13:51:30;;;;;;;8.13;4.70;;;;;;;;;;5029490;28;20899;-72
2021/01/26 13:53:56;;;;;;;4.77;3.70;;;;;;;;;;5030816;28;20824;-72
2021/01/26 13:56:22;;;;;;;5.33;4.77;;;;;;;;;;5030823;28;20452;-72
2021/01/26 13:58:48;;;;;;;9.60;4.55;;;;;;;;;;5030660;28;20402;-72
2021/01/26 14:01:14;;;;;;;5.30;4.83;;;;;;;;;;5030607;28;20700;-71
2021/01/26 14:03:40;;;;;;;9.13;5.25;;;;;;;;;;5023984;28;20463;-72
2021/01/26 14:06:06;;;;;;;20.15;6.57;;;;;;;;;;5031168;28;20574;-72
2021/01/26 14:08:32;;;;;;;8.57;4.97;;;;;;;;;;5033688;28;20182;-72
2021/01/26 14:10:58;;;;;;;9.27;6.50;;;;;;;;;;5051375;28;20181;-72
2021/01/26 14:13:24;;;;;;;12.40;5.57;;;;;;;;;;5051130;28;20456;-71
2021/01/26 14:15:50;;;;;;;7.38;5.75;;;;;;;;;;5050861;28;20452;-70
2021/01/26 14:18:17;;;;;;;6.85;5.20;;;;;;;;;;5044932;28;20183;-70
2021/01/26 14:20:43;;;;;;;6.22;5.50;;;;;;;;;;5030960;28;20205;-70
2021/01/26 14:23:09;;;;;;;10.52;5.75;;;;;;;;;;5031061;28;20189;-71
2021/01/26 14:25:35;;;;;;;13.23;7.47;;;;;;;;;;5030786;28;20178;-70
2021/01/26 14:28:01;;;;;;;13.77;7.47;;;;;;;;;;5031031;28;20417;-69
2021/01/26 14:30:27;;;;;;;7.00;5.68;;;;;;;;;;5031010;28;20412;-71
2021/01/26 14:32:53;;;;;;;6.22;5.63;;;;;;;;;;5028372;28;20197;-70
2021/01/26 14:35:21;;;;;;;7.28;6.55;;;;;;;;;;5030329;28;20642;-71
2021/01/26 14:37:47;;;;;;;5.60;4.57;;;;;;;;;;5030810;28;20170;-71
2021/01/26 14:40:13;;;;;;;6.60;6.00;;;;;;;;;;5030870;28;20170;-71
2021/01/26 14:42:39;;;;;;;13.02;5.78;;;;;;;;;;5042525;28;20205;-71
2021/01/26 14:45:05;;;;;;;8.82;6.55;;;;;;;;;;5010956;28;20182;-72